Time;durP1;ratioP1;P1;durP2;ratioP2;P2;SDS_P1;SDS_P2;PMS_P1;PMS_P2;Temp;Humidity;BMP_temperature;BMP_pressure;BME280_temperature;BME280_humidity;BME280_pressure;Samples;Min_cycle;Max_cycle;Signal;HPM_P1;HPM_P2
2022/04/15 00:00:29;;;;;;;1999.90;999.90;;;13.00;99.90;;;;;;5013159;28;20174;-74
2022/04/15 00:02:54;;;;;;;1999.90;999.90;;;12.90;99.90;;;;;;5013044;28;20516;-74
2022/04/15 00:05:34;;;;;;;1999.90;999.90;;;12.70;99.90;;;;;;5012815;28;20198;-73
2022/04/15 00:08:00;;;;;;;1999.90;999.90;;;12.70;99.90;;;;;;5013081;28;20166;-73
2022/04/15 00:10:28;;;;;;;1999.90;999.90;;;12.60;99.90;;;;;;5013037;28;20453;-74
2022/04/15 00:12:55;;;;;;;1999.90;999.90;;;12.60;99.90;;;;;;5013022;28;20412;-73
2022/04/15 00:15:21;;;;;;;1999.90;999.90;;;12.60;99.90;;;;;;5012498;28;20483;-74
2022/04/15 00:17:46;;;;;;;1999.90;999.90;;;12.50;99.90;;;;;;5012349;28;20439;-73
2022/04/15 00:20:14;;;;;;;1999.90;999.90;;;12.50;99.90;;;;;;5012965;28;20169;-73
2022/04/15 00:22:40;;;;;;;1999.90;999.90;;;12.50;99.90;;;;;;5012926;28;20169;-73
2022/04/15 00:25:07;;;;;;;1999.90;999.90;;;12.50;99.90;;;;;;5012475;28;20963;-73
2022/04/15 00:27:34;;;;;;;1999.90;999.90;;;12.50;99.90;;;;;;5013174;28;20405;-72
2022/04/15 00:29:59;;;;;;;1999.90;999.90;;;12.50;99.90;;;;;;5011290;28;20898;-72
2022/04/15 00:32:26;;;;;;;1999.90;999.90;;;12.50;99.90;;;;;;5012515;28;20436;-72
2022/04/15 00:34:52;;;;;;;1999.90;999.90;;;12.50;99.90;;;;;;5012112;28;20690;-72
2022/04/15 00:37:18;;;;;;;1999.90;999.90;;;12.50;99.90;;;;;;5012523;28;21041;-73
2022/04/15 00:39:46;;;;;;;1999.90;999.90;;;12.30;99.90;;;;;;5012503;28;20497;-73
2022/04/15 00:42:12;;;;;;;1999.90;999.90;;;12.10;99.90;;;;;;5012510;28;20168;-72
2022/04/15 00:44:38;;;;;;;1999.90;999.90;;;12.00;99.90;;;;;;5012003;28;20428;-73
2022/04/15 00:47:22;;;;;;;1999.90;999.90;;;12.00;99.90;;;;;;5012399;28;20488;-72
2022/04/15 00:49:47;;;;;;;1999.90;999.90;;;12.00;99.90;;;;;;5012365;28;20410;-73
2022/04/15 00:52:14;;;;;;;1999.90;999.90;;;11.90;99.90;;;;;;5012399;28;20491;-73
2022/04/15 00:54:43;;;;;;;1999.90;999.90;;;11.80;99.90;;;;;;5011942;28;20200;-73
2022/04/15 00:57:11;;;;;;;1999.90;999.90;;;11.80;99.90;;;;;;5012373;28;20411;-73
2022/04/15 00:59:38;;;;;;;1999.90;999.90;;;11.80;99.90;;;;;;5012251;28;20396;-72
2022/04/15 01:02:05;;;;;;;1999.90;999.90;;;11.90;99.90;;;;;;5012283;28;20404;-72
2022/04/15 01:04:31;;;;;;;1999.90;999.90;;;11.90;99.90;;;;;;5011800;28;20427;-72
2022/04/15 01:07:09;;;;;;;1999.90;999.90;;;11.90;99.90;;;;;;5012274;28;20406;-72
2022/04/15 01:09:42;;;;;;;1999.90;999.90;;;11.90;99.90;;;;;;5012121;28;20510;-72
2022/04/15 01:12:09;;;;;;;1999.90;999.90;;;11.90;99.90;;;;;;5012198;28;20414;-73
2022/04/15 01:14:38;;;;;;;1999.90;999.90;;;11.90;99.90;;;;;;5011712;28;20459;-73
2022/04/15 01:17:04;;;;;;;1999.90;999.90;;;11.90;99.90;;;;;;5012135;28;20412;-73
2022/04/15 01:19:30;;;;;;;1999.90;999.90;;;11.90;99.90;;;;;;5012000;28;20404;-73
2022/04/15 01:21:56;;;;;;;1999.90;999.90;;;11.90;99.90;;;;;;5012129;28;20487;-72
2022/04/15 01:24:23;;;;;;;1999.90;999.90;;;11.90;99.90;;;;;;5011691;28;20686;-73
2022/04/15 01:26:50;;;;;;;1999.90;999.90;;;11.80;99.90;;;;;;5012026;28;20471;-72
2022/04/15 01:29:15;;;;;;;1999.90;999.90;;;11.70;99.90;;;;;;5011996;28;20503;-72
2022/04/15 01:31:41;;;;;;;1999.90;999.90;;;11.70;99.90;;;;;;5015187;28;20490;-72
2022/04/15 01:34:07;;;;;;;1999.90;999.90;;;11.70;99.90;;;;;;5015398;28;20209;-72
2022/04/15 01:36:32;;;;;;;1999.90;999.90;;;11.60;99.90;;;;;;5015902;28;20594;-72
2022/04/15 01:39:00;;;;;;;1999.90;999.90;;;11.60;99.90;;;;;;5015917;28;20251;-72
2022/04/15 01:41:25;;;;;;;1999.90;999.90;;;11.50;99.90;;;;;;5015751;28;20632;-72
2022/04/15 01:43:51;;;;;;;1999.90;999.90;;;11.40;99.90;;;;;;5015724;28;20459;-72
2022/04/15 01:46:17;;;;;;;1999.90;999.90;;;11.30;99.90;;;;;;5015588;28;20533;-73
2022/04/15 01:48:43;;;;;;;1999.90;999.90;;;11.30;99.90;;;;;;5015534;28;20418;-72
2022/04/15 01:51:08;;;;;;;1999.90;999.90;;;11.30;99.90;;;;;;5015574;28;20179;-72
2022/04/15 01:53:34;;;;;;;1999.90;999.90;;;11.30;99.90;;;;;;5015330;28;20615;-72
2022/04/15 01:55:59;;;;;;;1999.90;999.90;;;11.40;99.90;;;;;;5015230;28;20169;-72
2022/04/15 01:58:25;;;;;;;1999.90;999.90;;;11.40;99.90;;;;;;5015429;28;20172;-72
2022/04/15 02:00:50;;;;;;;1999.90;999.90;;;11.40;99.90;;;;;;5015402;28;20169;-72
2022/04/15 02:03:16;;;;;;;1999.90;999.90;;;11.40;99.90;;;;;;5015240;28;20203;-72
2022/04/15 02:05:42;;;;;;;1999.90;999.90;;;11.40;99.90;;;;;;5015002;28;20165;-72
2022/04/15 02:08:07;;;;;;;1999.90;999.90;;;11.30;99.90;;;;;;5015195;28;20234;-72
2022/04/15 02:10:33;;;;;;;1999.90;999.90;;;11.30;99.90;;;;;;5015212;28;20196;-72
2022/04/15 02:12:59;;;;;;;1999.90;999.90;;;11.20;99.90;;;;;;5015137;28;20248;-72
2022/04/15 02:15:24;;;;;;;1999.90;999.90;;;11.20;99.90;;;;;;5014724;28;20193;-72
2022/04/15 02:17:50;;;;;;;1999.90;999.90;;;11.20;99.90;;;;;;5015016;28;20176;-72
2022/04/15 02:20:16;;;;;;;1999.90;999.90;;;11.20;99.90;;;;;;5014985;28;20173;-72
2022/04/15 02:22:41;;;;;;;1999.90;999.90;;;11.10;99.90;;;;;;5014894;28;20184;-72
2022/04/15 02:25:07;;;;;;;1999.90;999.90;;;11.00;99.90;;;;;;5014593;28;20192;-72
2022/04/15 02:27:33;;;;;;;1999.90;999.90;;;11.00;99.90;;;;;;5014982;28;20164;-72
2022/04/15 02:29:59;;;;;;;1999.90;999.90;;;11.00;99.90;;;;;;5014871;28;20419;-72
2022/04/15 02:32:24;;;;;;;1999.90;999.90;;;10.90;99.90;;;;;;5014761;28;20172;-72
2022/04/15 02:34:50;;;;;;;1999.90;999.90;;;10.90;99.90;;;;;;5014156;28;20682;-72
2022/04/15 02:37:16;;;;;;;1999.90;999.90;;;10.80;99.90;;;;;;5014672;28;20173;-72
2022/04/15 02:39:42;;;;;;;1999.90;999.90;;;10.80;99.90;;;;;;5014705;28;20417;-72
2022/04/15 02:42:08;;;;;;;1999.90;999.90;;;10.90;99.90;;;;;;5014042;28;20651;-72
2022/04/15 02:44:37;;;;;;;1999.90;999.90;;;10.80;99.90;;;;;;5014333;28;20692;-72
2022/04/15 02:47:03;;;;;;;1999.90;999.90;;;10.80;99.90;;;;;;5014549;28;20444;-72
2022/04/15 02:49:29;;;;;;;1999.90;999.90;;;10.80;99.90;;;;;;5014473;28;20426;-72
2022/04/15 02:51:56;;;;;;;1999.90;999.90;;;10.80;99.90;;;;;;5014356;28;20948;-72
2022/04/15 02:54:22;;;;;;;1999.90;999.90;;;10.70;99.90;;;;;;5014000;28;20555;-72
2022/04/15 02:56:48;;;;;;;1999.90;999.90;;;10.80;99.90;;;;;;5014317;28;20403;-72
2022/04/15 02:59:16;;;;;;;1999.90;999.90;;;10.80;99.90;;;;;;5014293;28;20457;-72
2022/04/15 03:01:41;;;;;;;1999.90;999.90;;;10.80;99.90;;;;;;5014188;28;20169;-72
2022/04/15 03:04:07;;;;;;;1999.90;999.90;;;10.80;99.90;;;;;;5013749;28;20493;-72
2022/04/15 03:06:32;;;;;;;1999.90;999.90;;;10.70;99.90;;;;;;5014114;28;20180;-72
2022/04/15 03:08:59;;;;;;;1999.90;999.90;;;10.70;99.90;;;;;;5014147;28;20183;-72
2022/04/15 03:11:24;;;;;;;1999.90;999.90;;;10.80;99.90;;;;;;5014159;28;20254;-72
2022/04/15 03:13:50;;;;;;;1999.90;999.90;;;10.80;99.90;;;;;;5013861;28;20612;-72
2022/04/15 03:16:15;;;;;;;1999.90;999.90;;;10.80;99.90;;;;;;5013754;28;20179;-72
2022/04/15 03:18:41;;;;;;;1999.90;999.90;;;10.80;99.90;;;;;;5012556;28;20176;-72
2022/04/15 03:21:07;;;;;;;1999.90;999.90;;;10.80;99.90;;;;;;5013921;28;20172;-73
2022/04/15 03:23:33;;;;;;;1999.90;999.90;;;10.80;99.90;;;;;;5013737;28;20431;-72
2022/04/15 03:25:59;;;;;;;1999.90;999.90;;;10.70;99.90;;;;;;5013520;28;20498;-72
2022/04/15 03:28:25;;;;;;;1999.90;999.90;;;10.70;99.90;;;;;;5013768;28;20184;-72
2022/04/15 03:30:50;;;;;;;1999.90;999.90;;;10.70;99.90;;;;;;5013727;28;20176;-72
2022/04/15 03:33:16;;;;;;;1999.90;999.90;;;10.60;99.90;;;;;;5012019;28;20672;-72
2022/04/15 03:35:41;;;;;;;1999.90;999.90;;;10.50;99.90;;;;;;5013408;28;20169;-72
2022/04/15 03:38:07;;;;;;;1999.90;999.90;;;10.40;99.90;;;;;;5013590;28;20175;-72
2022/04/15 03:40:32;;;;;;;1999.90;999.90;;;10.30;99.90;;;;;;5013545;28;20183;-72
2022/04/15 03:42:58;;;;;;;1999.90;999.90;;;10.30;99.90;;;;;;5013473;28;20172;-72
2022/04/15 03:45:25;;;;;;;1999.90;999.90;;;10.10;99.90;;;;;;5013058;28;20192;-72
2022/04/15 03:47:56;;;;;;;1999.90;999.90;;;10.10;99.90;;;;;;5013322;28;20813;-72
2022/04/15 03:50:22;;;;;;;1999.90;999.90;;;10.00;99.90;;;;;;5013410;28;20415;-72
2022/04/15 03:52:49;;;;;;;1999.90;999.90;;;9.80;99.90;;;;;;5012404;28;20416;-72
2022/04/15 03:55:19;;;;;;;1999.90;999.90;;;9.80;99.90;;;;;;5012856;28;20469;-72
2022/04/15 03:57:45;;;;;;;1999.90;999.90;;;9.70;99.90;;;;;;5013212;28;20422;-72
2022/04/15 04:00:13;;;;;;;1999.90;999.90;;;9.70;99.90;;;;;;5013143;28;20415;-72
2022/04/15 04:02:42;;;;;;;1999.90;999.90;;;9.70;99.90;;;;;;5013056;28;20501;-72
2022/04/15 04:05:09;;;;;;;1999.90;999.90;;;9.60;99.90;;;;;;5012706;28;20562;-72
2022/04/15 04:07:34;;;;;;;1999.90;999.90;;;9.60;99.90;;;;;;5013019;28;20407;-72
2022/04/15 04:10:00;;;;;;;1999.90;999.90;;;9.70;99.90;;;;;;5013000;28;20935;-72
2022/04/15 04:12:30;;;;;;;1999.90;999.90;;;9.80;99.90;;;;;;5012939;28;20249;-72
2022/04/15 04:14:55;;;;;;;1999.90;999.90;;;9.90;99.90;;;;;;5012393;28;20215;-72
2022/04/15 04:17:21;;;;;;;1999.90;999.90;;;10.00;99.90;;;;;;5012897;28;20415;-72
2022/04/15 04:19:47;;;;;;;1999.90;999.90;;;10.00;99.90;;;;;;5012830;28;20171;-72
2022/04/15 04:22:13;;;;;;;1999.90;999.90;;;10.00;99.90;;;;;;5012807;28;20219;-72
2022/04/15 04:24:38;;;;;;;1999.90;999.90;;;10.10;99.90;;;;;;5012435;28;20423;-72
2022/04/15 04:27:04;;;;;;;1999.90;999.90;;;10.10;99.90;;;;;;5012683;28;20983;-72
2022/04/15 04:29:29;;;;;;;1999.90;999.90;;;10.10;99.90;;;;;;5012728;28;20178;-72
2022/04/15 04:31:55;;;;;;;1999.90;999.90;;;9.90;99.90;;;;;;5012545;28;20176;-72
2022/04/15 04:34:21;;;;;;;1999.90;999.90;;;9.90;99.90;;;;;;5012063;28;20250;-72
2022/04/15 04:36:46;;;;;;;1999.90;999.90;;;9.90;99.90;;;;;;5012642;28;20175;-72
2022/04/15 04:39:12;;;;;;;1999.90;999.90;;;9.90;99.90;;;;;;5012581;28;20167;-72
2022/04/15 04:41:38;;;;;;;1999.90;999.90;;;9.90;99.90;;;;;;5012509;28;20579;-72
2022/04/15 04:44:05;;;;;;;1999.90;999.90;;;9.80;99.90;;;;;;5012090;28;20183;-72
2022/04/15 04:46:32;;;;;;;1999.90;999.90;;;9.80;99.90;;;;;;5012394;28;20430;-72
2022/04/15 04:48:57;;;;;;;1999.90;999.90;;;9.70;99.90;;;;;;5012380;28;20407;-72
2022/04/15 04:51:23;;;;;;;1999.90;999.90;;;9.60;99.90;;;;;;5012416;28;20485;-72
2022/04/15 04:53:49;;;;;;;1999.90;999.90;;;9.60;99.90;;;;;;5012204;28;20194;-72
2022/04/15 04:56:15;;;;;;;1999.90;999.90;;;9.50;99.90;;;;;;5012084;28;20178;-72
2022/04/15 04:58:44;;;;;;;1999.90;999.90;;;9.50;99.90;;;;;;5012277;28;20171;-72
2022/04/15 05:01:09;;;;;;;1999.90;999.90;;;9.50;99.90;;;;;;5012281;28;20433;-72
2022/04/15 05:03:35;;;;;;;1999.90;999.90;;;9.50;99.90;;;;;;5011972;28;20469;-72
2022/04/15 05:06:00;;;;;;;1999.90;999.90;;;9.40;99.90;;;;;;5011831;28;20172;-72
2022/04/15 05:08:26;;;;;;;1999.90;999.90;;;9.50;99.90;;;;;;5012225;28;20210;-72
2022/04/15 05:10:51;;;;;;;1999.90;999.90;;;9.50;99.90;;;;;;5012148;28;20172;-72
2022/04/15 05:13:17;;;;;;;1999.90;999.90;;;9.50;99.90;;;;;;5011950;28;20690;-72
2022/04/15 05:15:43;;;;;;;1999.90;999.90;;;9.50;99.90;;;;;;5011693;28;20169;-72
2022/04/15 05:18:08;;;;;;;1999.90;999.90;;;9.60;99.90;;;;;;5012099;28;20178;-72
2022/04/15 05:20:34;;;;;;;1999.90;999.90;;;9.60;99.90;;;;;;5012084;28;20257;-72
2022/04/15 05:23:00;;;;;;;1999.90;999.90;;;9.70;99.90;;;;;;5012013;28;20165;-72
2022/04/15 05:25:25;;;;;;;1999.90;999.90;;;9.70;99.90;;;;;;5011640;28;20437;-72
2022/04/15 05:27:52;;;;;;;1999.90;999.90;;;9.70;99.90;;;;;;5011933;28;20179;-72
2022/04/15 05:30:18;;;;;;;1999.90;999.90;;;9.70;99.90;;;;;;5011918;28;20171;-72
2022/04/15 05:32:44;;;;;;;1999.90;999.90;;;9.60;99.90;;;;;;5011922;28;20414;-73
2022/04/15 05:35:09;;;;;;;1999.90;999.90;;;9.60;99.90;;;;;;5010093;28;20260;-72
2022/04/15 05:37:35;;;;;;;1999.90;999.90;;;9.60;99.90;;;;;;5011942;28;20180;-73
2022/04/15 05:40:02;;;;;;;1999.90;999.90;;;9.60;99.90;;;;;;5011906;28;20179;-72
2022/04/15 05:42:31;;;;;;;1999.90;999.90;;;9.60;99.90;;;;;;5011839;28;20966;-72
2022/04/15 05:44:56;;;;;;;1999.90;999.90;;;9.60;99.90;;;;;;5011518;28;20431;-72
2022/04/15 05:47:22;;;;;;;1999.90;999.90;;;9.70;99.90;;;;;;5011828;28;20422;-72
2022/04/15 05:49:47;;;;;;;1999.90;999.90;;;9.80;99.90;;;;;;5011765;28;20171;-72
2022/04/15 05:52:14;;;;;;;1999.90;999.90;;;9.80;99.90;;;;;;5011787;28;20171;-72
2022/04/15 05:54:40;;;;;;;1999.90;999.90;;;9.80;99.90;;;;;;5011326;28;20201;-72
2022/04/15 05:57:05;;;;;;;1999.90;999.90;;;9.80;99.90;;;;;;5011707;28;20403;-72
2022/04/15 05:59:31;;;;;;;1999.90;999.90;;;9.80;99.90;;;;;;5011638;28;20239;-72
2022/04/15 06:01:57;;;;;;;1999.90;999.90;;;9.80;99.90;;;;;;5011701;28;20172;-72
2022/04/15 06:04:22;;;;;;;1999.90;999.90;;;9.80;99.90;;;;;;5011388;28;20192;-72
2022/04/15 06:06:48;;;;;;;1999.90;999.90;;;9.80;99.90;;;;;;5011684;28;20179;-72
2022/04/15 06:09:14;;;;;;;1999.90;999.90;;;9.80;99.90;;;;;;5011624;28;20174;-72
2022/04/15 06:11:41;;;;;;;1999.90;999.90;;;9.80;99.90;;;;;;5011543;28;20542;-72
2022/04/15 06:14:07;;;;;;;1999.90;999.90;;;9.90;99.90;;;;;;5011239;28;20960;-72
2022/04/15 06:16:37;;;;;;;1999.90;999.90;;;9.90;99.90;;;;;;5012790;28;20505;-72
2022/04/15 06:19:03;;;;;;;1999.90;999.90;;;10.00;99.90;;;;;;5014817;28;20494;-72
2022/04/15 06:21:28;;;;;;;1999.90;999.90;;;10.00;99.90;;;;;;5015023;28;20417;-73
2022/04/15 06:23:54;;;;;;;1999.90;999.90;;;10.10;99.90;;;;;;5014862;28;20627;-72
2022/04/15 06:26:20;;;;;;;1999.90;999.90;;;10.20;99.90;;;;;;5015106;28;20199;-72
2022/04/15 06:28:45;;;;;;;1999.90;999.90;;;10.30;99.90;;;;;;5014910;28;20171;-73
2022/04/15 06:31:11;;;;;;;1999.90;999.90;;;10.20;99.90;;;;;;5014935;28;20546;-73
2022/04/15 06:33:37;;;;;;;1999.90;999.90;;;10.30;99.90;;;;;;5014614;28;20207;-73
2022/04/15 06:36:03;;;;;;;1999.90;999.90;;;10.40;99.90;;;;;;5014568;28;20168;-73
2022/04/15 06:38:29;;;;;;;1999.90;999.90;;;10.40;99.90;;;;;;5014818;28;20407;-73
2022/04/15 06:40:54;;;;;;;1999.90;999.90;;;10.60;99.90;;;;;;5014556;28;20762;-73
2022/04/15 06:43:20;;;;;;;1999.90;999.90;;;10.60;99.90;;;;;;5014496;28;20534;-72
2022/04/15 06:45:46;;;;;;;1999.90;999.90;;;10.70;99.90;;;;;;5014446;28;20169;-74
2022/04/15 06:48:12;;;;;;;1999.90;999.90;;;10.80;99.90;;;;;;5014630;28;20533;-73
2022/04/15 06:50:37;;;;;;;1999.90;999.90;;;11.00;99.90;;;;;;5014679;28;20168;-73
2022/04/15 06:53:03;;;;;;;1999.90;999.90;;;11.10;99.90;;;;;;5014612;28;20223;-73
2022/04/15 06:55:29;;;;;;;1999.90;999.90;;;11.30;99.90;;;;;;5014069;28;20208;-73
2022/04/15 06:57:54;;;;;;;1999.90;999.90;;;11.60;99.90;;;;;;5014467;28;20168;-74
2022/04/15 07:00:20;;;;;;;1999.90;999.90;;;11.80;99.90;;;;;;5014542;28;20206;-73
2022/04/15 07:02:46;;;;;;;1999.90;999.90;;;12.00;99.90;;;;;;5014408;28;20171;-73
2022/04/15 07:05:12;;;;;;;1999.90;999.90;;;12.00;99.90;;;;;;5013959;28;20208;-73
2022/04/15 07:07:39;;;;;;;1999.90;999.90;;;12.10;99.90;;;;;;5014388;28;20176;-74
2022/04/15 07:10:06;;;;;;;1999.90;999.90;;;12.10;99.90;;;;;;5014155;28;20427;-73
2022/04/15 07:12:33;;;;;;;1999.90;999.90;;;12.20;99.90;;;;;;5014336;28;20400;-73
2022/04/15 07:14:58;;;;;;;1999.90;999.90;;;12.30;99.90;;;;;;5014002;28;20547;-73
2022/04/15 07:17:25;;;;;;;1999.90;999.90;;;12.40;99.90;;;;;;5014093;28;20483;-73
2022/04/15 07:19:51;;;;;;;1999.90;999.90;;;12.50;99.90;;;;;;5014074;28;20161;-74
2022/04/15 07:22:18;;;;;;;1999.90;999.90;;;12.80;99.90;;;;;;5014028;28;20400;-74
2022/04/15 07:24:44;;;;;;;1999.90;999.90;;;13.00;99.90;;;;;;5013538;28;20429;-74
2022/04/15 07:27:09;;;;;;;1999.90;999.90;;;13.10;99.90;;;;;;5013751;28;20551;-74
2022/04/15 07:29:35;;;;;;;1999.90;999.90;;;13.40;99.90;;;;;;5013844;28;20462;-74
2022/04/15 07:32:01;;;;;;;1999.90;999.90;;;13.50;99.90;;;;;;5014080;28;20281;-73
2022/04/15 07:34:26;;;;;;;1999.90;999.90;;;13.60;99.90;;;;;;5013199;28;20573;-73
2022/04/15 07:36:56;;;;;;;1999.90;999.90;;;13.50;99.90;;;;;;5013698;28;20165;-73
2022/04/15 07:39:23;;;;;;;1999.90;999.90;;;13.40;99.90;;;;;;5013784;28;20167;-74
2022/04/15 07:41:49;;;;;;;1999.90;999.90;;;13.40;99.90;;;;;;5013637;28;20407;-73
2022/04/15 07:44:15;;;;;;;1999.90;999.90;;;13.10;99.90;;;;;;5013282;28;20867;-73
2022/04/15 07:46:42;;;;;;;1999.90;999.90;;;12.80;99.90;;;;;;5013659;28;20407;-73
2022/04/15 07:49:09;;;;;;;1999.90;999.90;;;12.40;99.90;;;;;;5013637;28;20862;-73
2022/04/15 07:51:35;;;;;;;1999.90;999.90;;;12.20;99.90;;;;;;5013503;28;20783;-73
2022/04/15 07:54:03;;;;;;;1999.90;999.90;;;12.20;99.90;;;;;;5012948;28;20875;-74
2022/04/15 07:56:28;;;;;;;1999.90;999.90;;;12.20;99.90;;;;;;5013327;28;20496;-73
2022/04/15 07:58:54;;;;;;;1999.90;999.90;;;12.20;99.90;;;;;;5013357;28;20479;-74
2022/04/15 08:01:20;;;;;;;1999.90;999.90;;;12.10;99.90;;;;;;5013306;28;20639;-73
2022/04/15 08:03:48;;;;;;;1999.90;999.90;;;11.90;99.90;;;;;;5013243;28;20212;-74
2022/04/15 08:06:14;;;;;;;1999.90;999.90;;;11.80;99.90;;;;;;5012850;28;20418;-74
2022/04/15 08:08:40;;;;;;;1999.90;999.90;;;11.80;99.90;;;;;;5013184;28;20422;-74
2022/04/15 08:11:06;;;;;;;1999.90;999.90;;;11.80;99.90;;;;;;5013063;28;20404;-73
2022/04/15 08:13:32;;;;;;;1999.90;999.90;;;11.90;99.90;;;;;;5012847;28;20487;-73
2022/04/15 08:15:58;;;;;;;1999.90;999.90;;;12.20;99.90;;;;;;5012831;28;20586;-73
2022/04/15 08:18:25;;;;;;;1999.90;999.90;;;12.20;99.90;;;;;;5012968;28;20404;-73
2022/04/15 08:20:52;;;;;;;1999.90;999.90;;;12.10;99.90;;;;;;5012932;28;20462;-74
2022/04/15 08:23:20;;;;;;;1999.90;999.90;;;12.10;99.90;;;;;;5012827;28;20412;-74
2022/04/15 08:25:46;;;;;;;1999.90;999.90;;;12.10;99.90;;;;;;5012600;28;20407;-73
2022/04/15 08:28:12;;;;;;;1999.90;999.90;;;12.00;99.90;;;;;;5012874;28;20913;-73
2022/04/15 08:30:38;;;;;;;1999.90;999.90;;;12.10;99.90;;;;;;5012858;28;20415;-73
2022/04/15 08:33:06;;;;;;;1999.90;999.90;;;12.20;99.90;;;;;;5012622;28;20176;-73
2022/04/15 08:35:32;;;;;;;1999.90;999.90;;;12.10;99.90;;;;;;5012256;28;20455;-73
2022/04/15 08:37:58;;;;;;;1999.90;999.90;;;11.80;99.90;;;;;;5012581;28;20405;-74
2022/04/15 08:40:27;;;;;;;1999.90;999.90;;;11.80;99.90;;;;;;5011998;28;20407;-73
2022/04/15 08:42:53;;;;;;;1999.90;999.90;;;11.90;99.90;;;;;;5012649;28;20894;-73
2022/04/15 08:45:21;;;;;;;1999.90;999.90;;;12.10;99.90;;;;;;5012261;28;20427;-73
2022/04/15 08:47:48;;;;;;;1999.90;999.90;;;12.10;99.90;;;;;;5012434;28;20899;-73
2022/04/15 08:50:14;;;;;;;1999.90;999.90;;;12.10;99.90;;;;;;5012457;28;20413;-74
2022/04/15 08:52:41;;;;;;;1999.90;999.90;;;12.10;99.90;;;;;;5012489;28;20459;-74
2022/04/15 08:55:07;;;;;;;1999.90;999.90;;;12.20;99.90;;;;;;5004611;28;20471;-73
2022/04/15 08:57:33;;;;;;;1999.90;999.90;;;12.10;99.90;;;;;;5000660;28;20996;-73
2022/04/15 08:59:59;;;;;;;1999.90;999.90;;;12.00;99.90;;;;;;4992718;28;20412;-73
2022/04/15 09:02:30;;;;;;;1999.90;999.90;;;11.90;99.90;;;;;;4992772;28;20181;-73
2022/04/15 09:04:56;;;;;;;1999.90;999.90;;;11.80;99.90;;;;;;4992429;28;21004;-73
2022/04/15 09:07:22;;;;;;;1999.90;999.90;;;11.50;99.90;;;;;;4990301;28;20785;-74
2022/04/15 09:09:57;;;;;;;1999.90;999.90;;;11.40;99.90;;;;;;4992170;28;20415;-74
2022/04/15 09:12:30;;;;;;;1999.90;999.90;;;11.30;99.90;;;;;;4992379;28;20262;-74
2022/04/15 09:15:00;;;;;;;1999.90;999.90;;;11.10;99.90;;;;;;4991487;28;20475;-74
2022/04/15 09:17:28;;;;;;;1999.90;999.90;;;11.00;99.90;;;;;;4996002;28;20469;-70
2022/04/15 09:19:55;;;;;;;1999.90;999.90;;;11.10;99.90;;;;;;5011534;28;20406;-70
2022/04/15 09:22:21;;;;;;;1999.90;999.90;;;11.00;99.90;;;;;;5011285;28;20442;-70
2022/04/15 09:24:47;;;;;;;1999.90;999.90;;;11.10;99.90;;;;;;5011148;28;20880;-70
2022/04/15 09:27:14;;;;;;;1999.90;999.90;;;11.20;99.90;;;;;;5011756;28;20671;-70
2022/04/15 09:29:40;;;;;;;1999.90;999.90;;;11.10;99.90;;;;;;5011048;28;20408;-70
2022/04/15 09:32:09;;;;;;;1999.90;999.90;;;11.20;99.90;;;;;;5012468;28;20408;-71
2022/04/15 09:34:54;;;;;;;1999.90;999.90;;;11.50;99.90;;;;;;5015999;28;20470;-70
2022/04/15 09:37:22;;;;;;;1999.90;999.90;;;11.60;99.90;;;;;;5014256;28;21077;-71
2022/04/15 09:40:03;;;;;;;1999.90;999.90;;;11.50;99.90;;;;;;5011732;28;20435;-71
2022/04/15 09:42:29;;;;;;;1999.90;999.90;;;11.70;99.90;;;;;;5011579;28;20415;-71
2022/04/15 09:44:59;;;;;;;1999.90;999.90;;;12.00;99.90;;;;;;5010178;28;20460;-71
2022/04/15 09:47:24;;;;;;;1999.90;999.90;;;12.20;99.90;;;;;;5010889;28;20416;-71
2022/04/15 09:49:50;;;;;;;1999.90;999.90;;;12.10;99.90;;;;;;5011182;28;20430;-71
2022/04/15 09:52:25;;;;;;;1999.90;999.90;;;11.90;99.90;;;;;;5013437;28;20651;-74
2022/04/15 09:54:54;;;;;;;1999.90;999.90;;;12.00;99.90;;;;;;5014328;28;20619;-74
2022/04/15 09:57:21;;;;;;;1999.90;999.90;;;12.30;99.90;;;;;;5015008;28;20401;-74
2022/04/15 09:59:52;;;;;;;1999.90;999.90;;;12.80;99.90;;;;;;5014437;28;20802;-74
2022/04/15 10:02:20;;;;;;;1999.90;999.90;;;13.50;99.90;;;;;;5015122;28;20428;-74
2022/04/15 10:04:46;;;;;;;1999.90;999.90;;;14.10;99.90;;;;;;5014183;28;20470;-75
2022/04/15 10:07:12;;;;;;;1999.90;999.90;;;14.10;99.90;;;;;;5014297;28;20447;-74
2022/04/15 10:09:38;;;;;;;1999.90;999.90;;;14.40;99.90;;;;;;5014944;28;20165;-74
2022/04/15 10:12:05;;;;;;;1999.90;999.90;;;14.50;99.90;;;;;;5014864;28;20488;-75
2022/04/15 10:14:33;;;;;;;1999.90;999.90;;;14.80;99.90;;;;;;5013517;28;20534;-75
2022/04/15 10:17:00;;;;;;;1999.90;999.90;;;15.20;99.90;;;;;;5014855;28;20505;-74
2022/04/15 10:19:26;;;;;;;1999.90;999.90;;;15.70;99.90;;;;;;5013277;28;20427;-74
2022/04/15 10:21:52;;;;;;;1999.90;999.90;;;15.70;99.90;;;;;;5014069;28;20752;-74
2022/04/15 10:24:18;;;;;;;1999.90;999.90;;;15.40;99.90;;;;;;5013725;28;20208;-74
2022/04/15 10:26:49;;;;;;;1999.90;999.90;;;15.20;99.90;;;;;;5014479;28;20410;-73
2022/04/15 10:29:14;;;;;;;1999.90;999.90;;;15.00;99.90;;;;;;5014004;28;20404;-74
2022/04/15 10:31:45;;;;;;;1999.90;999.90;;;15.20;99.90;;;;;;5014392;28;20416;-74
2022/04/15 10:34:14;;;;;;;1999.90;999.90;;;15.10;99.90;;;;;;5013379;28;20580;-73
2022/04/15 10:36:51;;;;;;;1999.90;999.90;;;15.10;99.90;;;;;;5013958;28;20404;-74
2022/04/15 10:39:24;;;;;;;1999.90;999.90;;;15.10;99.90;;;;;;5014223;28;20400;-74
2022/04/15 10:41:53;;;;;;;1999.90;999.90;;;15.10;99.90;;;;;;5014208;28;20405;-74
2022/04/15 10:44:39;;;;;;;1999.90;999.90;;;15.40;99.90;;;;;;5012988;28;20435;-74
2022/04/15 10:47:17;;;;;;;1999.90;999.90;;;15.80;99.90;;;;;;5014223;28;20448;-74
2022/04/15 10:50:03;;;;;;;1999.90;999.90;;;16.30;99.90;;;;;;5013941;28;20934;-76
2022/04/15 10:52:30;;;;;;;1999.90;999.90;;;16.40;99.90;;;;;;5013690;28;20780;-71
2022/04/15 10:55:02;;;;;;;1999.90;999.90;;;16.30;99.90;;;;;;5013023;28;20514;-71
2022/04/15 10:58:10;;;;;;;1999.90;999.90;;;16.40;99.90;;;;;;5013998;28;20408;-71
2022/04/15 11:01:20;;;;;;;1999.90;999.90;;;16.70;99.90;;;;;;5013784;28;20399;-71
2022/04/15 11:03:23;;;;;;;1999.90;999.90;;;16.80;99.90;;;;;;5012570;28;20445;-71
2022/04/15 11:05:50;;;;;;;1999.90;999.90;;;16.90;99.90;;;;;;5012698;28;20414;-70
2022/04/15 11:08:20;;;;;;;1999.90;999.90;;;17.00;99.90;;;;;;5013912;28;20405;-70
2022/04/15 11:10:54;;;;;;;1999.90;999.90;;;17.30;99.90;;;;;;5012319;28;20504;-70
2022/04/15 11:13:23;;;;;;;1999.90;999.90;;;17.40;99.90;;;;;;5013056;28;20412;-70
2022/04/15 11:16:10;;;;;;;1999.90;999.90;;;17.50;99.90;;;;;;5013019;28;20428;-70
2022/04/15 11:19:00;;;;;;;1999.90;999.90;;;17.50;99.90;;;;;;5013603;28;20437;-70
2022/04/15 11:21:30;;;;;;;1999.90;999.90;;;17.30;99.90;;;;;;5012952;28;20410;-69
2022/04/15 11:24:02;;;;;;;1999.90;999.90;;;17.40;99.90;;;;;;5013115;28;20518;-74
2022/04/15 11:26:29;;;;;;;1999.90;999.90;;;17.70;99.90;;;;;;5013416;28;20782;-73
2022/04/15 11:28:59;;;;;;;1999.90;999.90;;;18.20;99.90;;;;;;5012811;28;20415;-73
2022/04/15 11:31:39;;;;;;;1999.90;999.90;;;18.20;99.90;;;;;;5013500;28;20462;-73
2022/04/15 11:34:16;;;;;;;1999.90;999.90;;;17.10;99.90;;;;;;5012344;28;20507;-73
2022/04/15 11:36:56;;;;;;;1999.90;999.90;;;16.50;99.90;;;;;;5012730;28;20400;-72
2022/04/15 11:39:24;;;;;;;1999.90;999.90;;;16.80;99.90;;;;;;5013053;28;20943;-73
2022/04/15 11:41:54;;;;;;;1999.90;999.90;;;17.20;99.90;;;;;;5013139;28;20496;-72
2022/04/15 11:44:22;;;;;;;1999.90;999.90;;;17.20;99.90;;;;;;5011850;28;20488;-72
2022/04/15 11:46:50;;;;;;;1999.90;999.90;;;16.80;99.90;;;;;;5013142;28;20438;-73
2022/04/15 11:49:16;;;;;;;1999.90;999.90;;;16.70;99.90;;;;;;5012845;28;20492;-72
2022/04/15 11:51:53;;;;;;;1999.90;999.90;;;17.00;99.90;;;;;;5012389;28;20860;-73
2022/04/15 11:54:30;;;;;;;1999.90;999.90;;;17.50;99.90;;;;;;5012080;28;20225;-73
2022/04/15 11:56:57;;;;;;;1999.90;999.90;;;18.50;99.90;;;;;;5012482;28;20409;-73
2022/04/15 11:59:24;;;;;;;1999.90;999.90;;;19.00;99.90;;;;;;5012776;28;20457;-73
2022/04/15 12:01:52;;;;;;;1999.90;999.90;;;18.70;99.90;;;;;;5012705;28;20486;-72